CheckWX is a tool to help pilots better visualize weather data.  It is not intended as a substitute for an official pre-flight weather briefing.

18:31:44 UTC

KLNA METAR
Palm Beach County Park Airport
West Palm Beach, Florida, USA
Current

17 mins ago

KLNA 221815Z AUTO 09007KT SCT085 28/22 A3017 RMK AO2 T02820219 PWINO
Observed
Feb-22 @ 18:15 UTC
Wind
  • 090° at 7 KTS
Visibility
Cloud Levels
  • Scattered at 8,500' AGL
Temperature
28°C / 82°F
Dewpoint
22°C / 72°F
Humidity
70%
Altimeter
30.17" Hg
Pressure
1021.72 hPa
Previous

37 mins ago

KLNA 221755Z AUTO 11008KT SCT027 SCT055 28/21 A3018 RMK AO2 T02820212 10283 20235 PWINO
Observed
Feb-22 @ 17:55 UTC
Wind
  • 110° at 8 KTS
Visibility
Cloud Levels
  • Scattered at 2,700' AGL
  • Scattered at 5,500' AGL
Temperature
28°C / 82°F
Dewpoint
21°C / 70°F
Humidity
66%
Altimeter
30.18" Hg
Pressure
1022.02 hPa
Previous

57 mins ago

KLNA 221735Z AUTO 12006KT SCT047 SCT055 SCT070 28/21 A3018 RMK AO2 T02810210 PWINO
Observed
Feb-22 @ 17:35 UTC
Wind
  • 120° at 6 KTS
Visibility
Cloud Levels
  • Scattered at 4,700' AGL
  • Scattered at 5,500' AGL
  • Scattered at 7,000' AGL
Temperature
28°C / 82°F
Dewpoint
21°C / 70°F
Humidity
66%
Altimeter
30.18" Hg
Pressure
1022.02 hPa